UTY7243 YBWP-YBCS
Flight info
| Callsign | UTY7243 |
|---|---|
| Flight time | 1h 2m |
| Altitude | 33000 |
| Route | MEMOS B473 OVLET |
| Aircraft | E190/M-SDE3GILORVW/S |
Departure
| Time | 2026-04-27 09:18 |
|---|---|
| Airport | Weipa Airport (YBWP) |
Arrival
| Time | 2026-04-27 10:20 |
|---|---|
| Airport | Cairns International Airport (YBCS) |
| Time | Latitude | Longitude | Altitude | Speed | Heading |
|---|---|---|---|---|---|
| 2026-04-27 09:07 | -12.67980 | 141.92342 | 84 ft | 0 kts | 181° |
| 2026-04-27 09:11 | -12.67981 | 141.92343 | 84 ft | 0 kts | 159° |
| 2026-04-27 09:11 | -12.67982 | 141.92345 | 84 ft | 0 kts | 128° |
| 2026-04-27 09:12 | -12.67982 | 141.92351 | 84 ft | 1 kts | 83° |
| 2026-04-27 09:12 | -12.67979 | 141.92371 | 84 ft | 3 kts | 85° |
| 2026-04-27 09:12 | -12.67979 | 141.92404 | 84 ft | 5 kts | 98° |
| 2026-04-27 09:12 | -12.67977 | 141.92445 | 84 ft | 6 kts | 62° |
| 2026-04-27 09:13 | -12.67961 | 141.92464 | 84 ft | 8 kts | 40° |
| 2026-04-27 09:13 | -12.67937 | 141.92476 | 84 ft | 9 kts | 5° |
| 2026-04-27 09:13 | -12.67871 | 141.92433 | 84 ft | 14 kts | 305° |
| 2026-04-27 09:13 | -12.67806 | 141.92339 | 84 ft | 17 kts | 304° |
| 2026-04-27 09:14 | -12.67733 | 141.92230 | 82 ft | 19 kts | 305° |
| 2026-04-27 09:14 | -12.67655 | 141.92113 | 80 ft | 20 kts | 304° |
| 2026-04-27 09:14 | -12.67573 | 141.91995 | 80 ft | 20 kts | 306° |
| 2026-04-27 09:14 | -12.67492 | 141.91872 | 80 ft | 20 kts | 304° |
| 2026-04-27 09:15 | -12.67411 | 141.91748 | 78 ft | 21 kts | 304° |
| 2026-04-27 09:15 | -12.67336 | 141.91640 | 79 ft | 17 kts | 306° |
| 2026-04-27 09:15 | -12.67292 | 141.91560 | 78 ft | 4 kts | 254° |
| 2026-04-27 09:15 | -12.67304 | 141.91557 | 78 ft | 0 kts | 140° |
| 2026-04-27 09:16 | -12.67305 | 141.91559 | 78 ft | 0 kts | 127° |
| 2026-04-27 09:16 | -12.67317 | 141.91576 | 78 ft | 12 kts | 122° |
| 2026-04-27 09:16 | -12.67369 | 141.91679 | 79 ft | 12 kts | 116° |
| 2026-04-27 09:16 | -12.67374 | 141.91687 | 79 ft | 0 kts | 120° |
| 2026-04-27 09:17 | -12.67463 | 141.91829 | 80 ft | 58 kts | 125° |
| 2026-04-27 09:17 | -12.67817 | 141.92372 | 83 ft | 121 kts | 127° |
| 2026-04-27 09:18 | -12.68390 | 141.93182 | 280 ft | 148 kts | 123° |
| 2026-04-27 09:18 | -12.68966 | 141.94025 | 870 ft | 147 kts | 122° |
| 2026-04-27 09:18 | -12.69603 | 141.94893 | 1449 ft | 161 kts | 124° |
| 2026-04-27 09:18 | -12.70324 | 141.95815 | 2103 ft | 173 kts | 125° |
| 2026-04-27 09:19 | -12.71087 | 141.96793 | 2868 ft | 181 kts | 125° |
| 2026-04-27 09:19 | -12.71837 | 141.97760 | 3678 ft | 173 kts | 125° |
| 2026-04-27 09:19 | -12.72591 | 141.98747 | 4388 ft | 180 kts | 124° |
| 2026-04-27 09:19 | -12.73399 | 141.99722 | 5149 ft | 185 kts | 130° |
| 2026-04-27 09:20 | -12.74291 | 142.00665 | 5893 ft | 189 kts | 134° |
| 2026-04-27 09:20 | -12.75251 | 142.01610 | 6612 ft | 193 kts | 136° |
| 2026-04-27 09:20 | -12.76239 | 142.02539 | 7270 ft | 199 kts | 137° |
| 2026-04-27 09:20 | -12.77277 | 142.03491 | 7893 ft | 206 kts | 139° |
| 2026-04-27 09:21 | -12.78354 | 142.04460 | 8489 ft | 213 kts | 140° |
| 2026-04-27 09:21 | -12.79489 | 142.05473 | 9111 ft | 219 kts | 141° |
| 2026-04-27 09:21 | -12.80635 | 142.06491 | 9716 ft | 224 kts | 141° |
| 2026-04-27 09:21 | -12.81824 | 142.07542 | 10368 ft | 226 kts | 141° |
| 2026-04-27 09:22 | -12.83008 | 142.08588 | 11016 ft | 227 kts | 141° |
| 2026-04-27 09:22 | -12.84198 | 142.09639 | 11638 ft | 229 kts | 142° |
| 2026-04-27 09:22 | -12.85406 | 142.10704 | 12250 ft | 231 kts | 141° |
| 2026-04-27 09:22 | -12.86625 | 142.11778 | 12843 ft | 233 kts | 141° |
| 2026-04-27 09:23 | -12.87857 | 142.12866 | 13414 ft | 236 kts | 141° |
| 2026-04-27 09:23 | -12.89109 | 142.13969 | 14017 ft | 237 kts | 141° |
| 2026-04-27 09:23 | -12.90348 | 142.15063 | 14627 ft | 236 kts | 141° |
| 2026-04-27 09:23 | -12.91593 | 142.16162 | 15233 ft | 236 kts | 141° |
| 2026-04-27 09:24 | -12.92832 | 142.17256 | 15816 ft | 236 kts | 141° |
| 2026-04-27 09:24 | -12.94074 | 142.18352 | 16385 ft | 236 kts | 141° |
| 2026-04-27 09:24 | -12.95314 | 142.19447 | 16926 ft | 237 kts | 141° |
| 2026-04-27 09:24 | -12.96565 | 142.20550 | 17458 ft | 238 kts | 140° |
| 2026-04-27 09:25 | -12.97827 | 142.21664 | 17955 ft | 241 kts | 140° |
| 2026-04-27 09:25 | -12.99112 | 142.22800 | 18454 ft | 244 kts | 140° |
| 2026-04-27 09:25 | -13.00394 | 142.23932 | 18973 ft | 245 kts | 141° |
| 2026-04-27 09:25 | -13.01688 | 142.25076 | 19475 ft | 246 kts | 141° |
| 2026-04-27 09:26 | -13.02999 | 142.26234 | 19985 ft | 247 kts | 141° |
| 2026-04-27 09:26 | -13.04317 | 142.27399 | 20479 ft | 248 kts | 141° |
| 2026-04-27 09:26 | -13.05634 | 142.28561 | 20950 ft | 250 kts | 141° |
| 2026-04-27 09:26 | -13.06952 | 142.29727 | 21409 ft | 252 kts | 140° |
| 2026-04-27 09:27 | -13.08280 | 142.30901 | 21866 ft | 253 kts | 140° |
| 2026-04-27 09:27 | -13.09621 | 142.32086 | 22307 ft | 255 kts | 140° |
| 2026-04-27 09:27 | -13.10974 | 142.33284 | 22740 ft | 257 kts | 141° |
| 2026-04-27 09:27 | -13.12324 | 142.34477 | 23136 ft | 260 kts | 141° |
| 2026-04-27 09:28 | -13.13706 | 142.35700 | 23547 ft | 263 kts | 141° |
| 2026-04-27 09:28 | -13.15100 | 142.36934 | 23962 ft | 265 kts | 141° |
| 2026-04-27 09:28 | -13.16491 | 142.38164 | 24377 ft | 266 kts | 142° |
| 2026-04-27 09:28 | -13.17918 | 142.39427 | 24804 ft | 267 kts | 142° |
| 2026-04-27 09:29 | -13.19326 | 142.40674 | 25200 ft | 269 kts | 142° |
| 2026-04-27 09:29 | -13.20741 | 142.41925 | 25594 ft | 270 kts | 142° |
| 2026-04-27 09:29 | -13.22165 | 142.43185 | 25971 ft | 272 kts | 142° |
| 2026-04-27 09:29 | -13.23612 | 142.44467 | 26358 ft | 274 kts | 143° |
| 2026-04-27 09:30 | -13.25058 | 142.45747 | 26727 ft | 275 kts | 143° |
| 2026-04-27 09:30 | -13.26523 | 142.47046 | 27097 ft | 277 kts | 143° |
| 2026-04-27 09:30 | -13.27994 | 142.48349 | 27455 ft | 279 kts | 143° |
| 2026-04-27 09:30 | -13.29455 | 142.49644 | 27806 ft | 280 kts | 143° |
| 2026-04-27 09:31 | -13.30941 | 142.50961 | 28142 ft | 282 kts | 143° |
| 2026-04-27 09:31 | -13.32423 | 142.52274 | 28475 ft | 284 kts | 143° |
| 2026-04-27 09:31 | -13.33922 | 142.53604 | 28818 ft | 285 kts | 144° |
| 2026-04-27 09:31 | -13.35435 | 142.54945 | 29153 ft | 287 kts | 144° |
| 2026-04-27 09:32 | -13.36965 | 142.56302 | 29479 ft | 289 kts | 144° |
| 2026-04-27 09:32 | -13.38475 | 142.57642 | 29801 ft | 291 kts | 144° |
| 2026-04-27 09:32 | -13.40025 | 142.59016 | 30117 ft | 293 kts | 144° |
| 2026-04-27 09:32 | -13.41564 | 142.60382 | 30432 ft | 294 kts | 144° |
| 2026-04-27 09:33 | -13.43114 | 142.61757 | 30739 ft | 296 kts | 144° |
| 2026-04-27 09:33 | -13.44688 | 142.63155 | 31041 ft | 298 kts | 144° |
| 2026-04-27 09:33 | -13.46249 | 142.64540 | 31343 ft | 299 kts | 144° |
| 2026-04-27 09:33 | -13.47834 | 142.65947 | 31640 ft | 300 kts | 144° |
| 2026-04-27 09:34 | -13.49429 | 142.67364 | 31916 ft | 302 kts | 144° |
| 2026-04-27 09:34 | -13.51009 | 142.68768 | 32181 ft | 304 kts | 144° |
| 2026-04-27 09:34 | -13.52630 | 142.70209 | 32449 ft | 306 kts | 144° |
| 2026-04-27 09:34 | -13.54247 | 142.71645 | 32710 ft | 307 kts | 145° |
| 2026-04-27 09:35 | -13.55871 | 142.73088 | 32937 ft | 304 kts | 145° |
| 2026-04-27 09:35 | -13.59082 | 142.75941 | 32961 ft | 309 kts | 145° |
| 2026-04-27 09:36 | -13.62374 | 142.78871 | 32955 ft | 311 kts | 145° |
| 2026-04-27 09:36 | -13.65648 | 142.81784 | 32953 ft | 311 kts | 145° |
| 2026-04-27 09:37 | -13.68922 | 142.84698 | 32963 ft | 311 kts | 145° |
| 2026-04-27 09:37 | -13.72212 | 142.87627 | 32955 ft | 310 kts | 145° |
| 2026-04-27 09:38 | -13.75480 | 142.90538 | 32972 ft | 308 kts | 145° |
| 2026-04-27 09:38 | -13.78809 | 142.93501 | 32985 ft | 325 kts | 145° |
| 2026-04-27 09:39 | -13.82348 | 142.96655 | 32987 ft | 345 kts | 144° |
| 2026-04-27 09:39 | -13.84222 | 142.98328 | 32987 ft | 356 kts | 144° |
| 2026-04-27 09:39 | -13.86110 | 143.00012 | 32990 ft | 366 kts | 144° |
| 2026-04-27 09:40 | -13.90086 | 143.03560 | 32988 ft | 386 kts | 144° |
| 2026-04-27 09:40 | -13.94276 | 143.07300 | 32990 ft | 406 kts | 143° |
| 2026-04-27 09:41 | -13.98647 | 143.11203 | 32987 ft | 425 kts | 143° |
| 2026-04-27 09:41 | -14.03245 | 143.15312 | 32986 ft | 443 kts | 143° |
| 2026-04-27 09:42 | -14.07996 | 143.19560 | 32979 ft | 460 kts | 143° |
| 2026-04-27 09:42 | -14.12903 | 143.23952 | 32983 ft | 467 kts | 143° |
| 2026-04-27 09:43 | -14.17820 | 143.28352 | 32979 ft | 465 kts | 143° |
| 2026-04-27 09:43 | -14.22701 | 143.32724 | 32975 ft | 465 kts | 143° |
| 2026-04-27 09:44 | -14.27615 | 143.37129 | 32978 ft | 464 kts | 143° |
| 2026-04-27 09:44 | -14.32490 | 143.41501 | 32976 ft | 465 kts | 143° |
| 2026-04-27 09:45 | -14.37399 | 143.45906 | 32976 ft | 465 kts | 143° |
| 2026-04-27 09:45 | -14.42299 | 143.50304 | 32976 ft | 465 kts | 143° |
| 2026-04-27 09:46 | -14.47208 | 143.54715 | 32977 ft | 466 kts | 143° |
| 2026-04-27 09:46 | -14.52077 | 143.59093 | 32977 ft | 465 kts | 143° |
| 2026-04-27 09:47 | -14.57006 | 143.63525 | 32974 ft | 466 kts | 143° |
| 2026-04-27 09:47 | -14.61885 | 143.67915 | 32966 ft | 465 kts | 143° |
| 2026-04-27 09:48 | -14.66784 | 143.72328 | 32966 ft | 466 kts | 143° |
| 2026-04-27 09:48 | -14.71687 | 143.76747 | 32963 ft | 466 kts | 143° |
| 2026-04-27 09:49 | -14.76608 | 143.81183 | 32965 ft | 467 kts | 143° |
| 2026-04-27 09:49 | -14.81496 | 143.85594 | 32965 ft | 468 kts | 143° |
| 2026-04-27 09:50 | -14.86371 | 143.89995 | 32966 ft | 467 kts | 143° |
| 2026-04-27 09:50 | -14.91291 | 143.94440 | 32970 ft | 468 kts | 143° |
| 2026-04-27 09:51 | -14.96201 | 143.98879 | 32969 ft | 469 kts | 143° |
| 2026-04-27 09:51 | -15.01136 | 144.03378 | 32967 ft | 468 kts | 143° |
| 2026-04-27 09:52 | -15.06012 | 144.07860 | 32972 ft | 468 kts | 143° |
| 2026-04-27 09:52 | -15.10874 | 144.12331 | 32976 ft | 467 kts | 143° |
| 2026-04-27 09:53 | -15.15754 | 144.16820 | 32981 ft | 466 kts | 143° |
| 2026-04-27 09:53 | -15.20632 | 144.21310 | 32981 ft | 467 kts | 143° |
| 2026-04-27 09:54 | -15.25511 | 144.25806 | 32986 ft | 468 kts | 143° |
| 2026-04-27 09:54 | -15.30343 | 144.30263 | 32974 ft | 453 kts | 143° |
| 2026-04-27 09:55 | -15.35017 | 144.34572 | 32988 ft | 449 kts | 144° |
| 2026-04-27 09:55 | -15.42040 | 144.41054 | 32985 ft | 450 kts | 143° |
| 2026-04-27 09:56 | -15.46722 | 144.45380 | 32982 ft | 449 kts | 144° |
| 2026-04-27 09:56 | -15.51384 | 144.49692 | 32790 ft | 435 kts | 144° |
| 2026-04-27 09:57 | -15.55876 | 144.53844 | 32773 ft | 440 kts | 144° |
| 2026-04-27 09:57 | -15.60548 | 144.58168 | 32859 ft | 451 kts | 144° |
| 2026-04-27 09:58 | -15.62862 | 144.60313 | 32550 ft | 436 kts | 144° |
| 2026-04-27 09:58 | -15.65097 | 144.62386 | 32187 ft | 423 kts | 144° |
| 2026-04-27 09:58 | -15.67266 | 144.64395 | 31722 ft | 413 kts | 144° |
| 2026-04-27 09:58 | -15.69397 | 144.66370 | 31259 ft | 403 kts | 144° |
| 2026-04-27 09:59 | -15.71458 | 144.68280 | 30795 ft | 395 kts | 144° |
| 2026-04-27 09:59 | -15.73499 | 144.70174 | 30330 ft | 386 kts | 144° |
| 2026-04-27 09:59 | -15.75467 | 144.71999 | 29875 ft | 378 kts | 145° |
| 2026-04-27 09:59 | -15.77400 | 144.73793 | 29421 ft | 371 kts | 145° |
| 2026-04-27 10:00 | -15.79289 | 144.75548 | 29339 ft | 352 kts | 145° |
| 2026-04-27 10:00 | -15.81062 | 144.77196 | 29284 ft | 335 kts | 146° |
| 2026-04-27 10:00 | -15.82755 | 144.78769 | 29225 ft | 318 kts | 146° |
| 2026-04-27 10:00 | -15.84373 | 144.80272 | 29158 ft | 302 kts | 147° |
| 2026-04-27 10:01 | -15.85890 | 144.81682 | 29095 ft | 285 kts | 147° |
| 2026-04-27 10:01 | -15.87340 | 144.83029 | 28982 ft | 272 kts | 147° |
| 2026-04-27 10:01 | -15.88739 | 144.84326 | 28555 ft | 271 kts | 147° |
| 2026-04-27 10:01 | -15.90159 | 144.85640 | 27854 ft | 282 kts | 146° |
| 2026-04-27 10:02 | -15.91649 | 144.87022 | 27140 ft | 292 kts | 146° |
| 2026-04-27 10:02 | -15.93191 | 144.88455 | 26437 ft | 300 kts | 145° |
| 2026-04-27 10:02 | -15.94746 | 144.89903 | 25872 ft | 303 kts | 145° |
| 2026-04-27 10:02 | -15.96305 | 144.91356 | 25437 ft | 301 kts | 144° |
| 2026-04-27 10:03 | -15.97869 | 144.92812 | 25055 ft | 297 kts | 144° |
| 2026-04-27 10:03 | -15.99404 | 144.94243 | 24684 ft | 293 kts | 144° |
| 2026-04-27 10:03 | -16.00902 | 144.95636 | 24293 ft | 290 kts | 144° |
| 2026-04-27 10:03 | -16.02405 | 144.97035 | 23873 ft | 289 kts | 144° |
| 2026-04-27 10:04 | -16.03893 | 144.98421 | 23446 ft | 288 kts | 143° |
| 2026-04-27 10:04 | -16.05387 | 144.99812 | 22905 ft | 293 kts | 143° |
| 2026-04-27 10:04 | -16.06927 | 145.01245 | 22266 ft | 302 kts | 142° |
| 2026-04-27 10:04 | -16.08498 | 145.02710 | 21715 ft | 306 kts | 142° |
| 2026-04-27 10:05 | -16.10092 | 145.04198 | 21298 ft | 305 kts | 142° |
| 2026-04-27 10:05 | -16.11668 | 145.05667 | 20972 ft | 301 kts | 142° |
| 2026-04-27 10:05 | -16.13204 | 145.07101 | 20655 ft | 297 kts | 142° |
| 2026-04-27 10:05 | -16.14740 | 145.08533 | 20247 ft | 296 kts | 142° |
| 2026-04-27 10:06 | -16.16275 | 145.09964 | 19827 ft | 294 kts | 141° |
| 2026-04-27 10:06 | -16.17781 | 145.11369 | 19408 ft | 293 kts | 141° |
| 2026-04-27 10:06 | -16.19288 | 145.12776 | 18990 ft | 291 kts | 141° |
| 2026-04-27 10:06 | -16.20790 | 145.14180 | 18574 ft | 290 kts | 141° |
| 2026-04-27 10:07 | -16.22304 | 145.15593 | 18145 ft | 289 kts | 141° |
| 2026-04-27 10:07 | -16.23638 | 145.17148 | 17725 ft | 289 kts | 130° |
| 2026-04-27 10:07 | -16.24845 | 145.18810 | 17302 ft | 288 kts | 130° |
| 2026-04-27 10:07 | -16.26051 | 145.20471 | 16886 ft | 286 kts | 129° |
| 2026-04-27 10:08 | -16.27245 | 145.22116 | 16471 ft | 285 kts | 129° |
| 2026-04-27 10:08 | -16.28422 | 145.23741 | 16066 ft | 284 kts | 129° |
| 2026-04-27 10:08 | -16.29612 | 145.25383 | 15652 ft | 283 kts | 129° |
| 2026-04-27 10:08 | -16.30797 | 145.27019 | 15180 ft | 284 kts | 129° |
| 2026-04-27 10:09 | -16.31999 | 145.28679 | 14703 ft | 285 kts | 129° |
| 2026-04-27 10:09 | -16.33180 | 145.30309 | 14234 ft | 286 kts | 129° |
| 2026-04-27 10:09 | -16.34381 | 145.31970 | 13752 ft | 287 kts | 129° |
| 2026-04-27 10:09 | -16.35588 | 145.33637 | 13265 ft | 291 kts | 128° |
| 2026-04-27 10:10 | -16.36903 | 145.35451 | 12853 ft | 332 kts | 128° |
| 2026-04-27 10:10 | -16.38303 | 145.37387 | 12408 ft | 342 kts | 128° |
| 2026-04-27 10:10 | -16.39745 | 145.39383 | 11918 ft | 340 kts | 128° |
| 2026-04-27 10:10 | -16.41150 | 145.41328 | 11415 ft | 334 kts | 128° |
| 2026-04-27 10:11 | -16.42524 | 145.43228 | 10913 ft | 328 kts | 128° |
| 2026-04-27 10:11 | -16.43897 | 145.45128 | 10394 ft | 324 kts | 128° |
| 2026-04-27 10:11 | -16.45237 | 145.46982 | 9883 ft | 321 kts | 128° |
| 2026-04-27 10:11 | -16.46572 | 145.48831 | 9380 ft | 318 kts | 128° |
| 2026-04-27 10:12 | -16.47890 | 145.50658 | 8868 ft | 314 kts | 128° |
| 2026-04-27 10:12 | -16.49203 | 145.52475 | 8375 ft | 311 kts | 128° |
| 2026-04-27 10:12 | -16.50481 | 145.54248 | 7883 ft | 306 kts | 128° |
| 2026-04-27 10:12 | -16.51757 | 145.56015 | 7390 ft | 303 kts | 128° |
| 2026-04-27 10:13 | -16.53018 | 145.57764 | 6892 ft | 299 kts | 128° |
| 2026-04-27 10:13 | -16.54310 | 145.59444 | 6376 ft | 293 kts | 138° |
| 2026-04-27 10:13 | -16.56072 | 145.60524 | 5890 ft | 291 kts | 155° |
| 2026-04-27 10:13 | -16.57897 | 145.61377 | 5393 ft | 290 kts | 155° |
| 2026-04-27 10:14 | -16.59754 | 145.62233 | 4896 ft | 287 kts | 156° |
| 2026-04-27 10:14 | -16.61578 | 145.63010 | 4396 ft | 283 kts | 156° |
| 2026-04-27 10:14 | -16.63392 | 145.63818 | 3884 ft | 278 kts | 154° |
| 2026-04-27 10:14 | -16.65152 | 145.64625 | 3370 ft | 273 kts | 154° |
| 2026-04-27 10:15 | -16.66845 | 145.65402 | 3225 ft | 255 kts | 153° |
| 2026-04-27 10:15 | -16.68409 | 145.66119 | 3202 ft | 235 kts | 153° |
| 2026-04-27 10:15 | -16.69847 | 145.66779 | 3203 ft | 220 kts | 153° |
| 2026-04-27 10:15 | -16.71258 | 145.67421 | 3226 ft | 218 kts | 153° |
| 2026-04-27 10:16 | -16.72665 | 145.68062 | 3231 ft | 222 kts | 154° |
| 2026-04-27 10:16 | -16.74088 | 145.68709 | 3228 ft | 214 kts | 153° |
| 2026-04-27 10:16 | -16.75409 | 145.69310 | 3208 ft | 198 kts | 153° |
| 2026-04-27 10:16 | -16.76607 | 145.69856 | 3209 ft | 178 kts | 153° |
| 2026-04-27 10:17 | -16.77658 | 145.70348 | 3292 ft | 153 kts | 152° |
| 2026-04-27 10:17 | -16.78591 | 145.70781 | 3183 ft | 137 kts | 152° |
| 2026-04-27 10:17 | -16.79455 | 145.71167 | 2910 ft | 132 kts | 153° |
| 2026-04-27 10:17 | -16.80285 | 145.71532 | 2523 ft | 130 kts | 154° |
| 2026-04-27 10:18 | -16.81128 | 145.71872 | 2089 ft | 130 kts | 154° |
| 2026-04-27 10:18 | -16.81940 | 145.72227 | 1776 ft | 124 kts | 153° |
| 2026-04-27 10:18 | -16.82724 | 145.72592 | 1462 ft | 123 kts | 152° |
| 2026-04-27 10:18 | -16.83511 | 145.72951 | 1195 ft | 125 kts | 153° |
| 2026-04-27 10:19 | -16.84294 | 145.73315 | 870 ft | 124 kts | 152° |
| 2026-04-27 10:19 | -16.85084 | 145.73675 | 508 ft | 119 kts | 154° |
| 2026-04-27 10:19 | -16.85823 | 145.74011 | 261 ft | 114 kts | 153° |
| 2026-04-27 10:19 | -16.86536 | 145.74335 | 57 ft | 109 kts | 153° |
| 2026-04-27 10:20 | -16.87198 | 145.74638 | 18 ft | 91 kts | 156° |
| 2026-04-27 10:20 | -16.87591 | 145.74812 | 17 ft | 19 kts | 157° |
| 2026-04-27 10:20 | -16.87723 | 145.74890 | 17 ft | 19 kts | 116° |
| 2026-04-27 10:20 | -16.87704 | 145.74970 | 17 ft | 11 kts | 65° |
| 2026-04-27 10:21 | -16.87697 | 145.74985 | 17 ft | 1 kts | 65° |
| 2026-04-27 10:21 | -16.87693 | 145.74992 | 17 ft | 0 kts | 66° |
| 2026-04-27 10:22 | -16.87693 | 145.74994 | 17 ft | 1 kts | 66° |
| 2026-04-27 10:22 | -16.87680 | 145.75023 | 17 ft | 5 kts | 64° |
| 2026-04-27 10:22 | -16.87664 | 145.75060 | 17 ft | 6 kts | 66° |
| 2026-04-27 10:22 | -16.87628 | 145.75114 | 17 ft | 5 kts | 23° |
| 2026-04-27 10:23 | -16.87616 | 145.75117 | 17 ft | 0 kts | 11° |
| 2026-04-27 10:24 | -16.87615 | 145.75117 | 17 ft | 0 kts | 359° |
| 2026-04-27 10:25 | -16.87598 | 145.75107 | 17 ft | 5 kts | 324° |
| 2026-04-27 10:25 | -16.87546 | 145.75087 | 17 ft | 11 kts | 351° |
| 2026-04-27 10:25 | -16.87464 | 145.75058 | 17 ft | 12 kts | 336° |
| 2026-04-27 10:25 | -16.87381 | 145.75021 | 17 ft | 12 kts | 340° |
| 2026-04-27 10:26 | -16.87310 | 145.75050 | 18 ft | 10 kts | 78° |
| 2026-04-27 10:26 | -16.87287 | 145.75104 | 19 ft | 6 kts | 67° |
| 2026-04-27 10:26 | -16.87297 | 145.75140 | 20 ft | 5 kts | 148° |
| 2026-04-27 10:26 | -16.87330 | 145.75157 | 20 ft | 5 kts | 158° |
| 2026-04-27 10:27 | -16.87354 | 145.75168 | 20 ft | 0 kts | 157° |
| 2026-04-27 10:27 | -16.87355 | 145.75168 | 20 ft | 0 kts | 157° |